sensor_id;sensor_type;location;lat;lon;timestamp;pressure;altitude;pressure_sealevel;temperature
61703;BMP280;47622;47.726;3.298;2023-04-01T00:00:18;98172.50;;;9.21
61703;BMP280;47622;47.726;3.298;2023-04-01T00:02:44;98171.09;;;9.14
61703;BMP280;47622;47.726;3.298;2023-04-01T00:05:10;98175.28;;;9.15
61703;BMP280;47622;47.726;3.298;2023-04-01T00:07:40;98188.81;;;9.17
61703;BMP280;47622;47.726;3.298;2023-04-01T00:10:07;98175.13;;;9.21
61703;BMP280;47622;47.726;3.298;2023-04-01T00:12:34;98182.31;;;9.24
61703;BMP280;47622;47.726;3.298;2023-04-01T00:15:00;98170.69;;;9.12
61703;BMP280;47622;47.726;3.298;2023-04-01T00:17:26;98174.38;;;9.03
61703;BMP280;47622;47.726;3.298;2023-04-01T00:19:54;98175.47;;;9.10
61703;BMP280;47622;47.726;3.298;2023-04-01T00:22:20;98177.13;;;9.06
61703;BMP280;47622;47.726;3.298;2023-04-01T00:24:47;98178.97;;;9.06
61703;BMP280;47622;47.726;3.298;2023-04-01T00:27:13;98179.75;;;9.06
61703;BMP280;47622;47.726;3.298;2023-04-01T00:29:43;98170.50;;;9.09
61703;BMP280;47622;47.726;3.298;2023-04-01T00:32:10;98176.38;;;9.06
61703;BMP280;47622;47.726;3.298;2023-04-01T00:34:37;98177.47;;;9.05
61703;BMP280;47622;47.726;3.298;2023-04-01T00:37:03;98180.38;;;9.03
61703;BMP280;47622;47.726;3.298;2023-04-01T00:39:30;98186.50;;;9.07
61703;BMP280;47622;47.726;3.298;2023-04-01T00:41:56;98192.38;;;9.04
61703;BMP280;47622;47.726;3.298;2023-04-01T00:44:25;98182.09;;;8.99
61703;BMP280;47622;47.726;3.298;2023-04-01T00:46:50;98171.16;;;8.97
61703;BMP280;47622;47.726;3.298;2023-04-01T00:49:22;98181.78;;;9.01
61703;BMP280;47622;47.726;3.298;2023-04-01T00:51:52;98179.47;;;8.99
61703;BMP280;47622;47.726;3.298;2023-04-01T00:54:19;98172.41;;;8.91
61703;BMP280;47622;47.726;3.298;2023-04-01T00:56:59;98175.78;;;9.00
61703;BMP280;47622;47.726;3.298;2023-04-01T00:59:29;98176.38;;;8.97
61703;BMP280;47622;47.726;3.298;2023-04-01T01:01:56;98191.59;;;9.04
61703;BMP280;47622;47.726;3.298;2023-04-01T01:04:31;98175.78;;;9.00
61703;BMP280;47622;47.726;3.298;2023-04-01T01:12:46;98183.75;;;8.95
61703;BMP280;47622;47.726;3.298;2023-04-01T01:20:39;98177.94;;;8.90
61703;BMP280;47622;47.726;3.298;2023-04-01T01:31:31;98171.94;;;8.80
61703;BMP280;47622;47.726;3.298;2023-04-01T01:36:34;98169.16;;;8.77
61703;BMP280;47622;47.726;3.298;2023-04-01T01:39:07;98169.47;;;8.75
61703;BMP280;47622;47.726;3.298;2023-04-01T01:41:35;98164.72;;;8.77
61703;BMP280;47622;47.726;3.298;2023-04-01T01:44:03;98169.66;;;8.79
61703;BMP280;47622;47.726;3.298;2023-04-01T01:46:30;98165.97;;;8.80
61703;BMP280;47622;47.726;3.298;2023-04-01T01:48:57;98162.56;;;8.71
61703;BMP280;47622;47.726;3.298;2023-04-01T01:51:26;98161.53;;;8.63
61703;BMP280;47622;47.726;3.298;2023-04-01T01:53:53;98160.75;;;8.63
61703;BMP280;47622;47.726;3.298;2023-04-01T01:56:20;98172.09;;;8.67
61703;BMP280;47622;47.726;3.298;2023-04-01T01:58:51;98166.56;;;8.59
61703;BMP280;47622;47.726;3.298;2023-04-01T02:01:24;98159.19;;;8.62
61703;BMP280;47622;47.726;3.298;2023-04-01T02:03:52;98157.66;;;8.69
61703;BMP280;47622;47.726;3.298;2023-04-01T02:06:21;98162.13;;;8.69
61703;BMP280;47622;47.726;3.298;2023-04-01T02:08:54;98160.44;;;8.73
61703;BMP280;47622;47.726;3.298;2023-04-01T02:14:26;98176.13;;;8.73
61703;BMP280;47622;47.726;3.298;2023-04-01T02:17:06;98175.78;;;8.83
61703;BMP280;47622;47.726;3.298;2023-04-01T02:19:38;98169.16;;;8.85
61703;BMP280;47622;47.726;3.298;2023-04-01T02:22:08;98169.94;;;8.86
61703;BMP280;47622;47.726;3.298;2023-04-01T02:24:35;98168.72;;;8.92
61703;BMP280;47622;47.726;3.298;2023-04-01T02:27:03;98172.88;;;8.84
61703;BMP280;47622;47.726;3.298;2023-04-01T02:29:29;98182.84;;;8.91
61703;BMP280;47622;47.726;3.298;2023-04-01T02:31:56;98173.00;;;8.88
61703;BMP280;47622;47.726;3.298;2023-04-01T02:34:23;98168.56;;;8.88
61703;BMP280;47622;47.726;3.298;2023-04-01T02:36:50;98166.13;;;8.75
61703;BMP280;47622;47.726;3.298;2023-04-01T02:39:17;98159.78;;;8.76
61703;BMP280;47622;47.726;3.298;2023-04-01T02:41:44;98175.94;;;8.78
61703;BMP280;47622;47.726;3.298;2023-04-01T02:44:12;98166.41;;;8.82
61703;BMP280;47622;47.726;3.298;2023-04-01T02:46:38;98174.25;;;8.82
61703;BMP280;47622;47.726;3.298;2023-04-01T02:49:04;98173.00;;;8.88
61703;BMP280;47622;47.726;3.298;2023-04-01T02:51:30;98165.00;;;8.93
61703;BMP280;47622;47.726;3.298;2023-04-01T02:53:56;98171.91;;;8.98
61703;BMP280;47622;47.726;3.298;2023-04-01T02:56:22;98167.44;;;8.98
61703;BMP280;47622;47.726;3.298;2023-04-01T02:58:47;98173.94;;;8.92
61703;BMP280;47622;47.726;3.298;2023-04-01T03:01:14;98177.13;;;8.98
61703;BMP280;47622;47.726;3.298;2023-04-01T03:03:40;98174.84;;;8.96
61703;BMP280;47622;47.726;3.298;2023-04-01T03:06:12;98171.16;;;8.97
61703;BMP280;47622;47.726;3.298;2023-04-01T03:08:38;98171.16;;;8.97
61703;BMP280;47622;47.726;3.298;2023-04-01T03:11:05;98172.09;;;9.01
61703;BMP280;47622;47.726;3.298;2023-04-01T03:13:31;98177.31;;;9.01
61703;BMP280;47622;47.726;3.298;2023-04-01T03:15:57;98174.06;;;9.04
61703;BMP280;47622;47.726;3.298;2023-04-01T03:18:23;98180.38;;;9.03
61703;BMP280;47622;47.726;3.298;2023-04-01T03:20:48;98164.69;;;9.03
61703;BMP280;47622;47.726;3.298;2023-04-01T03:23:14;98170.69;;;9.04
61703;BMP280;47622;47.726;3.298;2023-04-01T03:25:42;98182.38;;;8.98
61703;BMP280;47622;47.726;3.298;2023-04-01T03:28:08;98179.47;;;8.99
61703;BMP280;47622;47.726;3.298;2023-04-01T03:30:36;98175.78;;;9.00
61703;BMP280;47622;47.726;3.298;2023-04-01T03:33:02;98167.00;;;8.87
61703;BMP280;47622;47.726;3.298;2023-04-01T03:35:28;98160.41;;;8.90
61703;BMP280;47622;47.726;3.298;2023-04-01T03:37:54;98167.19;;;8.91
61703;BMP280;47622;47.726;3.298;2023-04-01T03:40:20;98165.47;;;8.86
61703;BMP280;47622;47.726;3.298;2023-04-01T03:42:47;98173.19;;;8.83
61703;BMP280;47622;47.726;3.298;2023-04-01T03:45:12;98170.56;;;8.83
61703;BMP280;47622;47.726;3.298;2023-04-01T03:47:39;98164.09;;;8.89
61703;BMP280;47622;47.726;3.298;2023-04-01T03:50:05;98166.56;;;8.94
61703;BMP280;47622;47.726;3.298;2023-04-01T03:52:31;98170.88;;;8.90
61703;BMP280;47622;47.726;3.298;2023-04-01T03:54:57;98170.56;;;8.83
61703;BMP280;47622;47.726;3.298;2023-04-01T03:57:23;98180.41;;;8.69
61703;BMP280;47622;47.726;3.298;2023-04-01T03:59:49;98171.00;;;8.76
61703;BMP280;47622;47.726;3.298;2023-04-01T04:02:15;98180.09;;;8.79
61703;BMP280;47622;47.726;3.298;2023-04-01T04:04:40;98169.16;;;8.85
61703;BMP280;47622;47.726;3.298;2023-04-01T04:07:06;98176.28;;;8.85
61703;BMP280;47622;47.726;3.298;2023-04-01T04:09:32;98178.41;;;8.92
61703;BMP280;47622;47.726;3.298;2023-04-01T04:11:59;98173.94;;;8.92
61703;BMP280;47622;47.726;3.298;2023-04-01T04:14:24;98171.94;;;8.89
61703;BMP280;47622;47.726;3.298;2023-04-01T04:16:50;98176.69;;;8.87
61703;BMP280;47622;47.726;3.298;2023-04-01T04:19:16;98173.66;;;8.85
61703;BMP280;47622;47.726;3.298;2023-04-01T04:21:42;98177.00;;;8.77
61703;BMP280;47622;47.726;3.298;2023-04-01T04:24:08;98174.72;;;8.84
61703;BMP280;47622;47.726;3.298;2023-04-01T04:26:33;98191.78;;;8.90
61703;BMP280;47622;47.726;3.298;2023-04-01T04:28:59;98178.72;;;8.90
61703;BMP280;47622;47.726;3.298;2023-04-01T04:31:26;98186.22;;;9.00
61703;BMP280;47622;47.726;3.298;2023-04-01T04:33:52;98184.69;;;8.99
61703;BMP280;47622;47.726;3.298;2023-04-01T04:36:20;98184.53;;;8.96
61703;BMP280;47622;47.726;3.298;2023-04-01T04:38:47;98191.59;;;8.95
61703;BMP280;47622;47.726;3.298;2023-04-01T04:41:14;98202.50;;;8.97
61703;BMP280;47622;47.726;3.298;2023-04-01T04:43:41;98190.53;;;8.96
61703;BMP280;47622;47.726;3.298;2023-04-01T04:46:08;98192.72;;;8.94
61703;BMP280;47622;47.726;3.298;2023-04-01T04:48:33;98190.38;;;8.93
61703;BMP280;47622;47.726;3.298;2023-04-01T04:50:59;98193.13;;;8.96
61703;BMP280;47622;47.726;3.298;2023-04-01T04:53:25;98203.44;;;9.01
61703;BMP280;47622;47.726;3.298;2023-04-01T04:55:51;98195.75;;;8.96
61703;BMP280;47622;47.726;3.298;2023-04-01T04:58:18;98200.97;;;8.96
61703;BMP280;47622;47.726;3.298;2023-04-01T05:00:44;98200.66;;;8.98
61703;BMP280;47622;47.726;3.298;2023-04-01T05:03:10;98204.69;;;8.95
61703;BMP280;47622;47.726;3.298;2023-04-01T05:05:36;98208.22;;;8.99
61703;BMP280;47622;47.726;3.298;2023-04-01T05:08:03;98207.28;;;8.95
61703;BMP280;47622;47.726;3.298;2023-04-01T05:10:29;98198.38;;;8.96
61703;BMP280;47622;47.726;3.298;2023-04-01T05:12:55;98200.97;;;8.96
61703;BMP280;47622;47.726;3.298;2023-04-01T05:15:21;98197.94;;;8.94
61703;BMP280;47622;47.726;3.298;2023-04-01T05:17:47;98206.06;;;9.01
61703;BMP280;47622;47.726;3.298;2023-04-01T05:20:13;98208.41;;;8.94
61703;BMP280;47622;47.726;3.298;2023-04-01T05:22:39;98218.19;;;8.97
61703;BMP280;47622;47.726;3.298;2023-04-01T05:25:05;98209.28;;;8.98
61703;BMP280;47622;47.726;3.298;2023-04-01T05:27:31;98217.28;;;8.93
61703;BMP280;47622;47.726;3.298;2023-04-01T05:29:57;98222.66;;;8.97
61703;BMP280;47622;47.726;3.298;2023-04-01T05:32:23;98215.75;;;8.92
61703;BMP280;47622;47.726;3.298;2023-04-01T05:34:53;98225.59;;;8.95
61703;BMP280;47622;47.726;3.298;2023-04-01T05:37:19;98225.72;;;8.99
61703;BMP280;47622;47.726;3.298;2023-04-01T05:39:45;98218.19;;;8.97
61703;BMP280;47622;47.726;3.298;2023-04-01T05:42:11;98222.84;;;9.00
61703;BMP280;47622;47.726;3.298;2023-04-01T05:44:37;98226.97;;;9.01
61703;BMP280;47622;47.726;3.298;2023-04-01T05:47:04;98235.72;;;9.05
61703;BMP280;47622;47.726;3.298;2023-04-01T05:49:30;98220.03;;;9.05
61703;BMP280;47622;47.726;3.298;2023-04-01T05:51:56;98217.75;;;8.95
61703;BMP280;47622;47.726;3.298;2023-04-01T05:54:22;98232.66;;;9.03
61703;BMP280;47622;47.726;3.298;2023-04-01T05:56:48;98231.75;;;8.99
61703;BMP280;47622;47.726;3.298;2023-04-01T05:59:14;98241.72;;;8.97
61703;BMP280;47622;47.726;3.298;2023-04-01T06:01:40;98242.38;;;8.94
61703;BMP280;47622;47.726;3.298;2023-04-01T06:04:05;98243.88;;;8.95
61703;BMP280;47622;47.726;3.298;2023-04-01T06:06:32;98244.19;;;9.02
61703;BMP280;47622;47.726;3.298;2023-04-01T06:09:17;98248.34;;;9.03
61703;BMP280;47622;47.726;3.298;2023-04-01T06:14:49;98257.28;;;9.02
61703;BMP280;47622;47.726;3.298;2023-04-01T06:17:29;98250.97;;;9.03
61703;BMP280;47622;47.726;3.298;2023-04-01T06:20:03;98255.44;;;9.11
61703;BMP280;47622;47.726;3.298;2023-04-01T06:22:45;98248.19;;;9.08
61703;BMP280;47622;47.726;3.298;2023-04-01T06:25:30;98249.88;;;9.04
61703;BMP280;47622;47.726;3.298;2023-04-01T06:28:30;98261.13;;;9.13
61703;BMP280;47622;47.726;3.298;2023-04-01T06:36:59;98258.16;;;9.24
61703;BMP280;47622;47.726;3.298;2023-04-01T06:47:01;98281.25;;;9.13
61703;BMP280;47622;47.726;3.298;2023-04-01T06:49:48;98294.47;;;9.16
61703;BMP280;47622;47.726;3.298;2023-04-01T06:55:22;98288.16;;;9.09
61703;BMP280;47622;47.726;3.298;2023-04-01T06:57:52;98293.88;;;9.02
61703;BMP280;47622;47.726;3.298;2023-04-01T07:00:32;98298.47;;;9.05
61703;BMP280;47622;47.726;3.298;2023-04-01T07:05:43;98299.88;;;9.11
61703;BMP280;47622;47.726;3.298;2023-04-01T07:08:12;98302.31;;;9.16
61703;BMP280;47622;47.726;3.298;2023-04-01T07:10:56;98284.97;;;9.21
61703;BMP280;47622;47.726;3.298;2023-04-01T07:13:29;98302.78;;;9.18
61703;BMP280;47622;47.726;3.298;2023-04-01T07:16:03;98297.25;;;9.29
61703;BMP280;47622;47.726;3.298;2023-04-01T07:24:04;98309.25;;;9.38
61703;BMP280;47622;47.726;3.298;2023-04-01T07:26:31;98313.53;;;9.43
61703;BMP280;47622;47.726;3.298;2023-04-01T07:28:57;98305.38;;;9.36
61703;BMP280;47622;47.726;3.298;2023-04-01T07:31:53;98290.31;;;9.41
61703;BMP280;47622;47.726;3.298;2023-04-01T07:37:18;98311.50;;;9.57
61703;BMP280;47622;47.726;3.298;2023-04-01T07:45:38;98313.22;;;9.53
61703;BMP280;47622;47.726;3.298;2023-04-01T07:48:19;98315.50;;;9.63
61703;BMP280;47622;47.726;3.298;2023-04-01T07:51:15;98322.59;;;9.54
61703;BMP280;47622;47.726;3.298;2023-04-01T07:54:14;98324.28;;;9.67
61703;BMP280;47622;47.726;3.298;2023-04-01T08:00:22;98330.28;;;9.68
61703;BMP280;47622;47.726;3.298;2023-04-01T08:11:29;98349.72;;;9.58
61703;BMP280;47622;47.726;3.298;2023-04-01T08:17:08;98353.84;;;9.51
61703;BMP280;47622;47.726;3.298;2023-04-01T08:22:17;98343.66;;;9.66
61703;BMP280;47622;47.726;3.298;2023-04-01T08:24:46;98354.72;;;9.72
61703;BMP280;47622;47.726;3.298;2023-04-01T08:32:34;98353.22;;;9.62
61703;BMP280;47622;47.726;3.298;2023-04-01T08:35:18;98344.16;;;9.51
61703;BMP280;47622;47.726;3.298;2023-04-01T08:37:46;98338.91;;;9.68
61703;BMP280;47622;47.726;3.298;2023-04-01T08:46:34;98369.53;;;16.33
61703;BMP280;47622;47.726;3.298;2023-04-01T09:00:36;98365.88;;;19.05
61703;BMP280;47622;47.726;3.298;2023-04-01T09:06:21;98353.06;;;18.20
61703;BMP280;47622;47.726;3.298;2023-04-01T09:21:24;98339.66;;;12.96
61703;BMP280;47622;47.726;3.298;2023-04-01T09:26:44;98336.06;;;12.11
61703;BMP280;47622;47.726;3.298;2023-04-01T09:43:06;98329.16;;;13.55
61703;BMP280;47622;47.726;3.298;2023-04-01T09:46:31;98330.97;;;13.67
61703;BMP280;47622;47.726;3.298;2023-04-01T09:51:42;98331.97;;;14.29
61703;BMP280;47622;47.726;3.298;2023-04-01T10:05:34;98329.66;;;17.74
61703;BMP280;47622;47.726;3.298;2023-04-01T10:22:50;98326.94;;;16.79
61703;BMP280;47622;47.726;3.298;2023-04-01T10:37:08;98316.78;;;15.65
61703;BMP280;47622;47.726;3.298;2023-04-01T10:40:12;98316.91;;;15.49
61703;BMP280;47622;47.726;3.298;2023-04-01T10:43:26;98316.00;;;15.18
61703;BMP280;47622;47.726;3.298;2023-04-01T10:48:31;98305.94;;;14.43
61703;BMP280;47622;47.726;3.298;2023-04-01T10:54:20;98310.63;;;13.52
61703;BMP280;47622;47.726;3.298;2023-04-01T10:56:51;98316.41;;;12.98
61703;BMP280;47622;47.726;3.298;2023-04-01T11:00:03;98301.13;;;13.31
61703;BMP280;47622;47.726;3.298;2023-04-01T11:11:22;98310.22;;;14.90
61703;BMP280;47622;47.726;3.298;2023-04-01T11:13:57;98304.22;;;14.35
61703;BMP280;47622;47.726;3.298;2023-04-01T11:16:36;98297.16;;;14.20
61703;BMP280;47622;47.726;3.298;2023-04-01T11:25:03;98324.94;;;12.55
61703;BMP280;47622;47.726;3.298;2023-04-01T11:30:06;98328.25;;;12.92
61703;BMP280;47622;47.726;3.298;2023-04-01T11:41:27;98311.97;;;15.70
61703;BMP280;47622;47.726;3.298;2023-04-01T11:47:10;98296.78;;;15.67
61703;BMP280;47622;47.726;3.298;2023-04-01T11:52:31;98290.91;;;16.34
61703;BMP280;47622;47.726;3.298;2023-04-01T11:58:06;98283.84;;;15.58
61703;BMP280;47622;47.726;3.298;2023-04-01T12:03:29;98285.53;;;14.79
61703;BMP280;47622;47.726;3.298;2023-04-01T12:06:37;98278.06;;;16.36
61703;BMP280;47622;47.726;3.298;2023-04-01T12:17:32;98267.28;;;16.18
61703;BMP280;47622;47.726;3.298;2023-04-01T12:25:27;98257.53;;;16.96
61703;BMP280;47622;47.726;3.298;2023-04-01T12:36:18;98254.25;;;16.02
61703;BMP280;47622;47.726;3.298;2023-04-01T12:53:16;98244.97;;;15.36
61703;BMP280;47622;47.726;3.298;2023-04-01T12:55:48;98249.53;;;15.62
61703;BMP280;47622;47.726;3.298;2023-04-01T12:58:30;98247.91;;;15.80
61703;BMP280;47622;47.726;3.298;2023-04-01T13:06:37;98235.34;;;16.74
61703;BMP280;47622;47.726;3.298;2023-04-01T13:12:06;98243.44;;;15.32
61703;BMP280;47622;47.726;3.298;2023-04-01T13:17:19;98236.38;;;15.16
61703;BMP280;47622;47.726;3.298;2023-04-01T13:20:24;98235.53;;;15.88
61703;BMP280;47622;47.726;3.298;2023-04-01T13:30:49;98227.38;;;15.70
61703;BMP280;47622;47.726;3.298;2023-04-01T13:33:38;98223.91;;;15.66
61703;BMP280;47622;47.726;3.298;2023-04-01T13:36:32;98214.72;;;15.30
61703;BMP280;47622;47.726;3.298;2023-04-01T13:39:18;98223.00;;;15.81
61703;BMP280;47622;47.726;3.298;2023-04-01T13:44:48;98225.66;;;16.11
61703;BMP280;47622;47.726;3.298;2023-04-01T13:47:30;98227.41;;;16.37
61703;BMP280;47622;47.726;3.298;2023-04-01T13:59:10;98226.16;;;15.90
61703;BMP280;47622;47.726;3.298;2023-04-01T14:07:56;98232.69;;;16.04
61703;BMP280;47622;47.726;3.298;2023-04-01T14:10:30;98224.72;;;15.97
61703;BMP280;47622;47.726;3.298;2023-04-01T14:21:33;98226.78;;;15.54
61703;BMP280;47622;47.726;3.298;2023-04-01T14:40:56;98228.66;;;14.23
61703;BMP280;47622;47.726;3.298;2023-04-01T14:48:59;98246.47;;;14.11
61703;BMP280;47622;47.726;3.298;2023-04-01T14:51:36;98261.84;;;13.58
61703;BMP280;47622;47.726;3.298;2023-04-01T14:54:14;98275.63;;;13.35
61703;BMP280;47622;47.726;3.298;2023-04-01T14:59:39;98277.66;;;12.83
61703;BMP280;47622;47.726;3.298;2023-04-01T15:05:15;98276.38;;;12.76
61703;BMP280;47622;47.726;3.298;2023-04-01T15:19:04;98270.38;;;13.35
61703;BMP280;47622;47.726;3.298;2023-04-01T15:22:02;98270.78;;;13.22
61703;BMP280;47622;47.726;3.298;2023-04-01T15:27:51;98269.75;;;14.09
61703;BMP280;47622;47.726;3.298;2023-04-01T15:40:53;98261.97;;;13.30
61703;BMP280;47622;47.726;3.298;2023-04-01T15:57:25;98269.75;;;12.83
61703;BMP280;47622;47.726;3.298;2023-04-01T16:07:58;98263.25;;;13.08
61703;BMP280;47622;47.726;3.298;2023-04-01T16:13:24;98268.97;;;13.10
61703;BMP280;47622;47.726;3.298;2023-04-01T16:18:44;98287.44;;;12.70
61703;BMP280;47622;47.726;3.298;2023-04-01T16:35:28;98310.78;;;12.59
61703;BMP280;47622;47.726;3.298;2023-04-01T16:38:05;98313.56;;;12.91
61703;BMP280;47622;47.726;3.298;2023-04-01T16:40:40;98315.53;;;12.94
61703;BMP280;47622;47.726;3.298;2023-04-01T16:51:24;98324.66;;;12.56
61703;BMP280;47622;47.726;3.298;2023-04-01T16:54:02;98329.91;;;12.32
61703;BMP280;47622;47.726;3.298;2023-04-01T16:56:49;98338.75;;;12.52
61703;BMP280;47622;47.726;3.298;2023-04-01T17:01:53;98341.50;;;11.82
61703;BMP280;47622;47.726;3.298;2023-04-01T17:04:37;98339.94;;;11.56
61703;BMP280;47622;47.726;3.298;2023-04-01T17:10:28;98339.47;;;11.21
61703;BMP280;47622;47.726;3.298;2023-04-01T17:13:08;98348.25;;;11.05
61703;BMP280;47622;47.726;3.298;2023-04-01T17:18:41;98337.13;;;11.08
61703;BMP280;47622;47.726;3.298;2023-04-01T17:21:52;98359.31;;;11.10
61703;BMP280;47622;47.726;3.298;2023-04-01T17:24:37;98359.81;;;10.83
61703;BMP280;47622;47.726;3.298;2023-04-01T17:35:22;98368.72;;;10.31
61703;BMP280;47622;47.726;3.298;2023-04-01T17:38:06;98366.66;;;10.16
61703;BMP280;47622;47.726;3.298;2023-04-01T17:40:44;98369.41;;;10.20
61703;BMP280;47622;47.726;3.298;2023-04-01T17:46:23;98371.00;;;10.03
61703;BMP280;47622;47.726;3.298;2023-04-01T17:51:41;98373.78;;;9.98
61703;BMP280;47622;47.726;3.298;2023-04-01T17:54:41;98375.47;;;10.03
61703;BMP280;47622;47.726;3.298;2023-04-01T17:57:34;98385.81;;;9.91
61703;BMP280;47622;47.726;3.298;2023-04-01T18:04:10;98396.66;;;9.63
61703;BMP280;47622;47.726;3.298;2023-04-01T18:12:00;98401.56;;;9.56
61703;BMP280;47622;47.726;3.298;2023-04-01T18:17:12;98412.19;;;9.42
61703;BMP280;47622;47.726;3.298;2023-04-01T18:25:45;98427.84;;;9.16
61703;BMP280;47622;47.726;3.298;2023-04-01T18:28:38;98433.06;;;9.16
61703;BMP280;47622;47.726;3.298;2023-04-01T18:31:10;98439.66;;;9.05
61703;BMP280;47622;47.726;3.298;2023-04-01T18:33:59;98447.06;;;9.03
61703;BMP280;47622;47.726;3.298;2023-04-01T18:39:42;98457.50;;;8.95
61703;BMP280;47622;47.726;3.298;2023-04-01T18:42:36;98466.69;;;8.92
61703;BMP280;47622;47.726;3.298;2023-04-01T18:45:14;98466.44;;;9.02
61703;BMP280;47622;47.726;3.298;2023-04-01T18:55:57;98483.72;;;9.21
61703;BMP280;47622;47.726;3.298;2023-04-01T18:58:33;98492.03;;;9.23
61703;BMP280;47622;47.726;3.298;2023-04-01T19:03:41;98495.06;;;9.25
61703;BMP280;47622;47.726;3.298;2023-04-01T19:06:23;98505.91;;;9.32
61703;BMP280;47622;47.726;3.298;2023-04-01T19:08:52;98519.56;;;9.29
61703;BMP280;47622;47.726;3.298;2023-04-01T19:11:46;98510.66;;;9.30
61703;BMP280;47622;47.726;3.298;2023-04-01T19:20:16;98522.38;;;9.41
61703;BMP280;47622;47.726;3.298;2023-04-01T19:23:07;98528.41;;;9.50
61703;BMP280;47622;47.726;3.298;2023-04-01T19:28:26;98536.56;;;9.49
61703;BMP280;47622;47.726;3.298;2023-04-01T19:44:47;98559.69;;;9.15
61703;BMP280;47622;47.726;3.298;2023-04-01T19:50:15;98557.78;;;9.07
61703;BMP280;47622;47.726;3.298;2023-04-01T19:52:47;98569.31;;;9.06
61703;BMP280;47622;47.726;3.298;2023-04-01T20:00:57;98577.19;;;9.06
61703;BMP280;47622;47.726;3.298;2023-04-01T20:04:08;98577.94;;;9.07
61703;BMP280;47622;47.726;3.298;2023-04-01T20:07:24;98583.94;;;9.07
61703;BMP280;47622;47.726;3.298;2023-04-01T20:10:16;98573.41;;;8.90
61703;BMP280;47622;47.726;3.298;2023-04-01T20:17:53;98587.63;;;9.06
61703;BMP280;47622;47.726;3.298;2023-04-01T20:20:23;98581.47;;;9.02
61703;BMP280;47622;47.726;3.298;2023-04-01T20:25:41;98593.34;;;8.86
61703;BMP280;47622;47.726;3.298;2023-04-01T20:28:19;98595.88;;;8.91
61703;BMP280;47622;47.726;3.298;2023-04-01T20:36:41;98598.06;;;8.75
61703;BMP280;47622;47.726;3.298;2023-04-01T20:39:40;98604.19;;;8.71
61703;BMP280;47622;47.726;3.298;2023-04-01T20:42:29;98609.13;;;8.72
61703;BMP280;47622;47.726;3.298;2023-04-01T20:48:26;98620.84;;;8.75
61703;BMP280;47622;47.726;3.298;2023-04-01T20:50:59;98625.81;;;8.85
61703;BMP280;47622;47.726;3.298;2023-04-01T20:53:36;98630.16;;;8.90
61703;BMP280;47622;47.726;3.298;2023-04-01T21:01:47;98630.28;;;8.62
61703;BMP280;47622;47.726;3.298;2023-04-01T21:04:27;98628.91;;;8.65
61703;BMP280;47622;47.726;3.298;2023-04-01T21:07:13;98635.31;;;8.58
61703;BMP280;47622;47.726;3.298;2023-04-01T21:10:07;98627.59;;;8.53
61703;BMP280;47622;47.726;3.298;2023-04-01T21:12:47;98631.06;;;8.49
61703;BMP280;47622;47.726;3.298;2023-04-01T21:32:22;98630.72;;;8.42
61703;BMP280;47622;47.726;3.298;2023-04-01T21:35:42;98643.50;;;8.43
61703;BMP280;47622;47.726;3.298;2023-04-01T21:41:14;98638.66;;;8.37
61703;BMP280;47622;47.726;3.298;2023-04-01T21:46:59;98634.91;;;8.29
61703;BMP280;47622;47.726;3.298;2023-04-01T21:55:27;98644.41;;;8.25
61703;BMP280;47622;47.726;3.298;2023-04-01T21:58:17;98658.03;;;8.22
61703;BMP280;47622;47.726;3.298;2023-04-01T22:06:50;98667.00;;;8.29
61703;BMP280;47622;47.726;3.298;2023-04-01T22:09:26;98662.66;;;8.39
61703;BMP280;47622;47.726;3.298;2023-04-01T22:12:00;98657.00;;;8.45
61703;BMP280;47622;47.726;3.298;2023-04-01T22:17:00;98666.63;;;8.36
61703;BMP280;47622;47.726;3.298;2023-04-01T22:19:47;98668.28;;;8.32
61703;BMP280;47622;47.726;3.298;2023-04-01T22:22:57;98673.00;;;8.44
61703;BMP280;47622;47.726;3.298;2023-04-01T22:25:47;98671.75;;;8.41
61703;BMP280;47622;47.726;3.298;2023-04-01T22:28:47;98666.53;;;8.41
61703;BMP280;47622;47.726;3.298;2023-04-01T22:31:17;98673.50;;;8.32
61703;BMP280;47622;47.726;3.298;2023-04-01T22:36:56;98678.31;;;8.52
61703;BMP280;47622;47.726;3.298;2023-04-01T22:39:57;98670.63;;;8.56
61703;BMP280;47622;47.726;3.298;2023-04-01T22:42:52;98670.56;;;8.47
61703;BMP280;47622;47.726;3.298;2023-04-01T22:56:32;98677.13;;;8.58
61703;BMP280;47622;47.726;3.298;2023-04-01T23:01:34;98681.34;;;8.68
61703;BMP280;47622;47.726;3.298;2023-04-01T23:04:04;98671.28;;;8.62
61703;BMP280;47622;47.726;3.298;2023-04-01T23:06:38;98687.06;;;8.56
61703;BMP280;47622;47.726;3.298;2023-04-01T23:11:52;98679.22;;;8.56
61703;BMP280;47622;47.726;3.298;2023-04-01T23:19:40;98688.97;;;8.42
61703;BMP280;47622;47.726;3.298;2023-04-01T23:22:30;98686.78;;;8.58
61703;BMP280;47622;47.726;3.298;2023-04-01T23:25:28;98694.91;;;8.56
61703;BMP280;47622;47.726;3.298;2023-04-01T23:28:23;98703.72;;;8.61
61703;BMP280;47622;47.726;3.298;2023-04-01T23:30:53;98691.63;;;8.51
61703;BMP280;47622;47.726;3.298;2023-04-01T23:33:20;98703.50;;;8.71
61703;BMP280;47622;47.726;3.298;2023-04-01T23:38:36;98706.31;;;8.61
61703;BMP280;47622;47.726;3.298;2023-04-01T23:41:05;98701.97;;;8.56
61703;BMP280;47622;47.726;3.298;2023-04-01T23:43:34;98704.22;;;8.63
61703;BMP280;47622;47.726;3.298;2023-04-01T23:46:04;98694.13;;;8.56
61703;BMP280;47622;47.726;3.298;2023-04-01T23:48:43;98709.66;;;8.52
61703;BMP280;47622;47.726;3.298;2023-04-01T23:51:20;98712.63;;;8.59
61703;BMP280;47622;47.726;3.298;2023-04-01T23:53:48;98708.13;;;8.51
61703;BMP280;47622;47.726;3.298;2023-04-01T23:56:21;98712.75;;;8.54
61703;BMP280;47622;47.726;3.298;2023-04-01T23:58:49;98720.66;;;8.63
